Waynesfield, OH (45896)

12:33 PM EST on December 19, 2014 (GMT -0500)
Lima Allen County | Change Station
CLOSE
Current Station
Airport
Location: Lima,
Elevation: 974 ft
Nearby Weather Stations

Elev 974 ft 40.71 °N, 84.03 °W | Updated 40 minutes ago

Overcast
Overcast
31 °F
Feels Like 25 °F
N
6
Wind Variable Wind from West

Today
High -- | Low -- °F
--% Chance of Precip.
Yesterday
High -- | Low -- °F
Precip. -- in
7:54 AM 5:11 PM
Waning Crescent, 7% visible
Pressure 30.30 in
Visibility 5.0 miles
Clouds Overcast 2100 ft
Windchill 25 °F
Dew Point 24 °F
Humidity 76%
Rainfall 0.00 in
Snow Depth Not available.
UV 1 out of 12
Pollen .10 out of 12
Air Quality Not available.
Flu Activity Not available.
METAR KAOH 191653Z AUTO 27005KT 5SM HZ OVC021 M01/M04 A3026 RMK AO2 SLP258 T10061044

More Conditions Fewer Conditions

Pressure 30.30 in
Visibility 5.0 miles
Clouds Overcast 2100 ft
Windchill 25 °F
Dew Point 24 °F
Humidity 76%
Rainfall 0.00 in
Snow Depth Not available.
UV 1 out of 12
Pollen .10 out of 12
Air Quality Not available.
Flu Activity Not available.
METAR KAOH 191653Z AUTO 27005KT 5SM HZ OVC021 M01/M04 A3026 RMK AO2 SLP258 T10061044

More Conditions Fewer Conditions

10-Day Weather Forecast

Almanac

Astronomy

Dec. 19, 2014 Rise Set
Actual Time
Civil Twilight
Nautical Twilight
Astronomical Twilight
Moon
Length of Visible Light
Length of Day
Tomorrow will be .
, % of the Moon is Illuminated

Today's Extremes

State Highs State Lows

Community

WunderPhotos

Upload Photos

1,779,008 photos uploaded!

WunderBlogs® & News

Nearby

Air Quality

  Air Quality AQ Index Pollutant
Not available.

Snow Depth

Station Depth Elevation

Earthquake Activity

City Distance Mag. Time & Date
Minimum magnitude displayed is 2.5.

Coastal Water Temperatures

Place Temperature

Nearby Weather Stations